Time;durP1;ratioP1;P1;durP2;ratioP2;P2;SDS_P1;SDS_P2;PMS_P1;PMS_P2;Temp;Humidity;BMP_temperature;BMP_pressure;BME280_temperature;BME280_humidity;BME280_pressure;Samples;Min_cycle;Max_cycle;Signal;HPM_P1;HPM_P2
2021/10/23 00:09:34;;;;;;;2.4;6.5;;;;;;;8.5;51.3;98730;;;;
2021/10/23 00:19:34;;;;;;;2.4;6.5;;;;;;;8.4;51.6;98740;;;;
2021/10/23 00:29:34;;;;;;;2.4;6.5;;;;;;;8.5;51.5;98770;;;;
2021/10/23 00:39:34;;;;;;;2.5;5.2;;;;;;;8.7;51.4;98770;;;;
2021/10/23 00:49:34;;;;;;;2.5;5.2;;;;;;;8.7;51.3;98760;;;;
2021/10/23 00:59:34;;;;;;;2.5;5.2;;;;;;;8.6;52;98770;;;;
2021/10/23 01:09:34;;;;;;;2.1;5.1;;;;;;;8.6;52.3;98800;;;;
2021/10/23 01:20:34;;;;;;;2.1;5.1;;;;;;;8.6;52.8;98810;;;;
2021/10/23 01:30:34;;;;;;;2.1;5.1;;;;;;;8.4;53.5;98810;;;;
2021/10/23 01:40:34;;;;;;;2.8;7.1;;;;;;;8.4;53.7;98850;;;;
2021/10/23 01:50:34;;;;;;;2.8;7.1;;;;;;;8.3;54.5;98850;;;;
2021/10/23 02:00:34;;;;;;;2.8;7.1;;;;;;;8.1;55.4;98870;;;;
2021/10/23 02:10:34;;;;;;;2.9;6.2;;;;;;;7.8;56.2;98870;;;;
2021/10/23 02:20:34;;;;;;;2.9;6.2;;;;;;;7.8;57.3;98900;;;;
2021/10/23 02:30:34;;;;;;;2.9;6.2;;;;;;;7.8;58;98910;;;;
2021/10/23 02:40:34;;;;;;;2.3;5.9;;;;;;;7.9;57.8;98920;;;;
2021/10/23 02:50:34;;;;;;;2.3;5.9;;;;;;;7.8;58.4;98940;;;;
2021/10/23 03:00:34;;;;;;;2.3;5.9;;;;;;;7.6;59.1;98960;;;;
2021/10/23 03:10:34;;;;;;;2.7;5.3;;;;;;;7.4;60.2;98980;;;;
2021/10/23 03:20:34;;;;;;;2.7;5.3;;;;;;;7.1;61.3;98980;;;;
2021/10/23 03:30:34;;;;;;;2.7;5.3;;;;;;;6.9;62.4;98980;;;;
2021/10/23 03:40:34;;;;;;;3;7.7;;;;;;;6.8;63.2;99010;;;;
2021/10/23 03:50:34;;;;;;;3;7.7;;;;;;;6.6;64.4;99030;;;;
2021/10/23 04:00:34;;;;;;;3;7.7;;;;;;;6.5;64.9;99040;;;;
2021/10/23 04:10:34;;;;;;;3;8.2;;;;;;;6.3;65.3;99060;;;;
2021/10/23 04:20:34;;;;;;;3;8.2;;;;;;;6.2;65;99050;;;;
2021/10/23 04:30:34;;;;;;;3;8.2;;;;;;;6.1;65.2;99070;;;;
2021/10/23 04:40:34;;;;;;;3.5;7.7;;;;;;;6;65.4;99070;;;;
2021/10/23 04:50:34;;;;;;;3.5;7.7;;;;;;;5.9;65.8;99080;;;;
2021/10/23 05:00:34;;;;;;;3.5;7.7;;;;;;;5.9;66.1;99100;;;;
2021/10/23 05:10:34;;;;;;;3.4;8.2;;;;;;;5.7;66.4;99110;;;;
2021/10/23 05:20:34;;;;;;;3.4;8.2;;;;;;;5.6;66.5;99130;;;;
2021/10/23 05:30:34;;;;;;;3.4;8.2;;;;;;;5.6;66.5;99140;;;;
2021/10/23 05:40:34;;;;;;;3.7;8.6;;;;;;;5.6;66.9;99140;;;;
2021/10/23 05:50:34;;;;;;;3.7;8.6;;;;;;;5.8;66.3;99150;;;;
2021/10/23 06:00:35;;;;;;;3.7;8.6;;;;;;;6;65.8;99160;;;;
2021/10/23 06:10:34;;;;;;;3.4;6.6;;;;;;;6.1;65.5;99180;;;;
2021/10/23 06:20:34;;;;;;;3.4;6.6;;;;;;;6.3;65.3;99190;;;;
2021/10/23 06:30:34;;;;;;;3.4;6.6;;;;;;;6.6;64.5;99210;;;;
2021/10/23 06:40:34;;;;;;;3.5;6.7;;;;;;;6.9;63.5;99220;;;;
2021/10/23 06:50:34;;;;;;;3.5;6.7;;;;;;;7.1;62.3;99230;;;;
2021/10/23 07:00:34;;;;;;;3.5;6.7;;;;;;;7.4;61.6;99250;;;;
2021/10/23 07:10:34;;;;;;;2.7;10.7;;;;;;;7.6;60.5;99240;;;;
2021/10/23 07:20:35;;;;;;;2.7;10.7;;;;;;;7.8;60.4;99240;;;;
2021/10/23 07:30:34;;;;;;;2.7;10.7;;;;;;;8;59.4;99260;;;;
2021/10/23 07:40:34;;;;;;;3.8;9.4;;;;;;;8.5;58.8;99280;;;;
2021/10/23 07:50:34;;;;;;;3.8;9.4;;;;;;;8.9;57.6;99280;;;;
2021/10/23 08:00:34;;;;;;;3.8;9.4;;;;;;;8.7;56.8;99280;;;;
2021/10/23 08:10:34;;;;;;;2.6;7.8;;;;;;;8.9;56.6;99300;;;;
2021/10/23 08:20:34;;;;;;;2.6;7.8;;;;;;;9.1;56.8;99310;;;;
2021/10/23 08:30:34;;;;;;;2.6;7.8;;;;;;;9.3;55.5;99320;;;;
2021/10/23 08:40:34;;;;;;;2.6;5.7;;;;;;;9.8;55.6;99320;;;;
2021/10/23 08:50:35;;;;;;;2.6;5.7;;;;;;;9.7;54.9;99340;;;;
2021/10/23 09:00:34;;;;;;;2.6;5.7;;;;;;;10.2;53.5;99350;;;;
2021/10/23 09:10:35;;;;;;;3;7;;;;;;;10.1;54.2;99350;;;;
2021/10/23 09:20:34;;;;;;;3;7;;;;;;;10.1;53.4;99350;;;;
2021/10/23 09:30:34;;;;;;;3;7;;;;;;;10.1;53.1;99350;;;;
2021/10/23 09:41:34;;;;;;;3.3;8.9;;;;;;;10.3;52.7;99360;;;;
2021/10/23 09:52:34;;;;;;;3.3;8.9;;;;;;;10.2;52.8;99370;;;;
2021/10/23 10:02:34;;;;;;;3.8;9;;;;;;;10.5;52.6;99390;;;;
2021/10/23 10:13:34;;;;;;;3.8;9;;;;;;;10.3;52.9;99390;;;;
2021/10/23 10:23:34;;;;;;;3.8;9;;;;;;;10.5;52.2;99390;;;;
2021/10/23 10:34:34;;;;;;;3.4;8.6;;;;;;;10.3;52.1;99400;;;;
2021/10/23 10:44:34;;;;;;;3.4;8.6;;;;;;;10.2;52.6;99390;;;;
2021/10/23 10:54:34;;;;;;;3.4;8.6;;;;;;;10.3;52.6;99390;;;;
2021/10/23 11:04:34;;;;;;;4.1;11.9;;;;;;;11.5;51;99390;;;;
2021/10/23 11:14:34;;;;;;;4.1;11.9;;;;;;;10.6;51.7;99410;;;;
2021/10/23 11:24:34;;;;;;;4.1;11.9;;;;;;;10.3;53.8;99410;;;;
2021/10/23 11:34:34;;;;;;;3.3;9.5;;;;;;;10;55.6;99410;;;;
2021/10/23 11:44:34;;;;;;;3.3;9.5;;;;;;;9.9;57.4;99410;;;;
2021/10/23 11:54:34;;;;;;;3.3;9.5;;;;;;;9.4;59.7;99410;;;;
2021/10/23 12:04:34;;;;;;;4.1;8.7;;;;;;;9.5;59.2;99410;;;;
2021/10/23 12:14:34;;;;;;;4.1;8.7;;;;;;;9.7;58.3;99420;;;;
2021/10/23 12:24:34;;;;;;;4.1;8.7;;;;;;;10.2;58;99420;;;;
2021/10/23 12:34:36;;;;;;;4;9.1;;;;;;;11.1;55.7;99400;;;;
2021/10/23 12:44:34;;;;;;;4;9.1;;;;;;;11.6;54.4;99400;;;;
2021/10/23 12:55:34;;;;;;;4;9.1;;;;;;;10.9;53.3;99420;;;;
2021/10/23 13:05:34;;;;;;;4.5;9.2;;;;;;;9.5;57.6;99450;;;;
2021/10/23 13:16:34;;;;;;;4.5;9.2;;;;;;;8.1;70.3;99480;;;;
2021/10/23 13:26:34;;;;;;;4.5;9.2;;;;;;;8;69.8;99460;;;;
2021/10/23 13:36:34;;;;;;;4.5;8.7;;;;;;;7.9;70.2;99470;;;;
2021/10/23 13:46:34;;;;;;;4.5;8.7;;;;;;;7.9;71.8;99460;;;;
2021/10/23 13:56:34;;;;;;;4.5;8.7;;;;;;;8;69.6;99450;;;;
2021/10/23 14:07:34;;;;;;;8;16.9;;;;;;;7.8;70.2;99460;;;;
2021/10/23 14:17:34;;;;;;;8;16.9;;;;;;;7.8;71.4;99480;;;;
2021/10/23 14:27:43;;;;;;;8;16.9;;;;;;;7.7;70.7;99480;;;;
2021/10/23 14:37:34;;;;;;;8.3;14.3;;;;;;;7.5;70.7;99510;;;;
2021/10/23 14:48:34;;;;;;;8.3;14.3;;;;;;;7.1;70.3;99530;;;;
2021/10/23 14:58:34;;;;;;;8.3;14.3;;;;;;;7.1;71;99560;;;;
2021/10/23 15:08:34;;;;;;;7.2;10.8;;;;;;;7;70.7;99560;;;;
2021/10/23 15:18:34;;;;;;;7.2;10.8;;;;;;;6.8;71.5;99580;;;;
2021/10/23 15:28:34;;;;;;;7.2;10.8;;;;;;;6.7;71.9;99600;;;;
2021/10/23 15:39:40;;;;;;;7.3;14.1;;;;;;;6.5;72.3;99620;;;;
2021/10/23 15:49:34;;;;;;;7.3;14.1;;;;;;;6.4;72.1;99630;;;;
2021/10/23 15:59:34;;;;;;;7.3;14.1;;;;;;;6.2;72.3;99650;;;;
2021/10/23 16:09:34;;;;;;;10.7;16.5;;;;;;;6.3;73.1;99660;;;;
2021/10/23 16:19:34;;;;;;;10.7;16.5;;;;;;;6.4;72.8;99670;;;;
2021/10/23 16:29:34;;;;;;;10.7;16.5;;;;;;;6.5;73.4;99730;;;;
2021/10/23 16:39:34;;;;;;;11.8;17.9;;;;;;;6.6;72.9;99730;;;;
2021/10/23 16:49:34;;;;;;;11.8;17.9;;;;;;;6.4;73.9;99730;;;;
2021/10/23 16:59:34;;;;;;;11.8;17.9;;;;;;;6;74.8;99720;;;;
2021/10/23 17:09:34;;;;;;;14;19.1;;;;;;;5.8;74.8;99730;;;;
2021/10/23 17:19:34;;;;;;;14;19.1;;;;;;;5.5;74.6;99750;;;;
2021/10/23 17:29:34;;;;;;;14;19.1;;;;;;;5.3;75.9;99760;;;;
2021/10/23 17:39:34;;;;;;;13.6;17.2;;;;;;;5.2;75.9;99780;;;;
2021/10/23 17:49:34;;;;;;;13.6;17.2;;;;;;;5.1;75.8;99790;;;;
2021/10/23 17:59:34;;;;;;;13.6;17.2;;;;;;;5.1;75.9;99790;;;;
2021/10/23 18:10:34;;;;;;;17.8;24.7;;;;;;;5;76;99800;;;;
2021/10/23 18:21:34;;;;;;;17.8;24.7;;;;;;;4.8;76.5;99820;;;;
2021/10/23 18:31:34;;;;;;;19.9;25.7;;;;;;;4.6;77.4;99820;;;;
2021/10/23 18:41:34;;;;;;;19.9;25.7;;;;;;;4.5;77.1;99830;;;;
2021/10/23 18:51:35;;;;;;;19.9;25.7;;;;;;;4.4;78.5;99830;;;;
2021/10/23 19:02:34;;;;;;;19.6;25.4;;;;;;;4.3;78.1;99850;;;;
2021/10/23 19:13:34;;;;;;;19.6;25.4;;;;;;;4.4;78.9;99860;;;;
2021/10/23 19:23:34;;;;;;;19.6;25.4;;;;;;;4.5;78;99880;;;;
2021/10/23 19:33:34;;;;;;;18.9;25.2;;;;;;;4.4;77.6;99890;;;;
2021/10/23 19:43:34;;;;;;;18.9;25.2;;;;;;;4.5;77.7;99910;;;;
2021/10/23 19:53:34;;;;;;;18.9;25.2;;;;;;;4.6;77.2;99900;;;;
2021/10/23 20:03:34;;;;;;;18.6;26.4;;;;;;;4.5;76.6;99920;;;;
2021/10/23 20:13:34;;;;;;;18.6;26.4;;;;;;;4.4;76.3;99940;;;;
2021/10/23 20:23:36;;;;;;;18.6;26.4;;;;;;;4.4;76.6;99940;;;;
2021/10/23 20:33:34;;;;;;;16;20.8;;;;;;;4.5;76.7;99960;;;;
2021/10/23 20:43:34;;;;;;;16;20.8;;;;;;;4.6;76.6;99960;;;;
2021/10/23 20:53:34;;;;;;;16;20.8;;;;;;;4.8;76.1;99970;;;;
2021/10/23 21:03:34;;;;;;;16.5;21.2;;;;;;;4.9;75.8;99980;;;;
2021/10/23 21:13:34;;;;;;;16.5;21.2;;;;;;;4.8;75.6;100000;;;;
2021/10/23 21:23:34;;;;;;;16.5;21.2;;;;;;;4.8;75.8;100000;;;;
2021/10/23 21:33:34;;;;;;;17.4;25.1;;;;;;;4.8;75.8;100010;;;;
2021/10/23 21:43:34;;;;;;;17.4;25.1;;;;;;;5;76;100020;;;;
2021/10/23 21:53:34;;;;;;;17.4;25.1;;;;;;;5.3;75.8;100030;;;;
2021/10/23 22:03:34;;;;;;;17.7;23.6;;;;;;;5.5;75.1;100050;;;;
2021/10/23 22:13:34;;;;;;;17.7;23.6;;;;;;;5.7;74.4;100050;;;;
2021/10/23 22:23:34;;;;;;;17.7;23.6;;;;;;;5.7;74.4;100050;;;;
2021/10/23 22:33:34;;;;;;;21.7;28.4;;;;;;;5.7;74.3;100060;;;;
2021/10/23 22:43:34;;;;;;;21.7;28.4;;;;;;;5.7;74.4;100070;;;;
2021/10/23 22:53:34;;;;;;;21.7;28.4;;;;;;;5.8;74.3;100070;;;;
2021/10/23 23:03:34;;;;;;;20.6;29.4;;;;;;;5.8;74.4;100080;;;;
2021/10/23 23:13:35;;;;;;;20.6;29.4;;;;;;;5.6;74.5;100080;;;;
2021/10/23 23:23:34;;;;;;;20.6;29.4;;;;;;;5.3;74.8;100080;;;;
2021/10/23 23:33:34;;;;;;;18.6;31.8;;;;;;;4.9;75.1;100080;;;;
2021/10/23 23:43:34;;;;;;;18.6;31.8;;;;;;;4.6;76.1;100080;;;;
2021/10/23 23:53:34;;;;;;;18.6;31.8;;;;;;;4.3;76.4;100100;;;;
